Language selection

Weather shortcuts

Pacific - North Coast: Past 24 Hour Conditions

 

South Nomad - 46036

08:00 AM PDT 30 May 2024Buoy position: 48.35N 133.95W
Disclaimer

This table is a summary of hourly weather conditions for the past 24 hours.
Please note that these observations might not always be representative of weather conditions over their associated marine area.

Date / Time
(PDT)
Wind(knots) Wave height(m) Wave period(s) Pressure(kPa) Air tempC) Water tempC)
30 May 2024
8:00 SW 11 gusts 12 1.60 5.2 102.7 N/A 11
7:00 SW 12 gusts 14 1.60 4.7 102.7 N/A 11
6:00 SW 14 gusts 18 1.60 4.7 102.7 N/A 11
5:00 SSW 16 gusts 19 1.70 5.8 102.7 N/A 11
4:00 SSW 17 gusts 20 1.60 7.3 102.8 N/A 11
3:00 SSW 15 gusts 18 1.50 8.0 102.8 N/A 11
2:00 SSW 16 gusts 20 1.60 8.8 102.9 N/A 11
1:00 SSW 15 gusts 18 1.50 8.8 102.9 N/A 11
0:00 SSW 14 gusts 17 1.40 9.1 102.9 N/A 11
29 May 2024
23:00 SSW 13 gusts 16 1.30 8.8 102.9 N/A 11
22:00 SW 11 gusts 14 1.40 7.8 102.9 N/A 11
21:00 SW 12 gusts 14 1.50 9.5 102.9 N/A 11
20:00 SW 15 gusts 17 1.50 9.1 102.9 N/A 11
19:00 SW 11 gusts 13 1.60 8.8 102.9 N/A 11
18:00 SW 12 gusts 14 1.60 8.8 102.9 N/A 11
17:00 WSW 13 gusts 17 1.60 9.5 103.0 N/A 11
16:00 SW 13 gusts 16 1.70 9.5 103.0 N/A 11
15:00 SW 12 gusts 14 1.70 8.0 103.0 N/A 11
14:00 SW 13 gusts 16 1.60 10.2 103.0 N/A 11
13:00 WSW 13 gusts 16 1.60 9.5 102.9 N/A 11
12:00 WSW 10 gusts 12 1.60 9.8 102.9 N/A 11
11:00 WSW 11 gusts 13 1.50 9.8 102.9 N/A 11
10:00 WSW 11 gusts 13 1.60 9.8 102.8 N/A 11
9:00 W 10 gusts 12 1.70 10.2 102.8 N/A 11
8:00 W 11 gusts 12 1.70 9.5 102.7 N/A 11

Zoom-in to make a selection

Map of Pacific - North Coast marine weather areas Middle Nomad - 46004 South Nomad - 46036 Dixon Entrance Central - 46145 South Moresby - 46147 Nanakwa Shoal - 46181 North Hecate Strait - 46183 North Nomad - 46184 South Hecate Strait - 46185 West Sea Otter - 46204 West Dixon Entrance - 46205 East Dellwood - 46207 West Moresby - 46208 Sartine Island Cape St.James Kindakun Rocks Langara Island Masset Municipal Airport Rose Spit Sandspit Airport Bella Bella Airport Bella Coola Airport Bonilla Island Cathedral Point Cumshewa Island Grey Islet Holland Rock Lucy Islands Lightstation Prince Rupert Airport
Legend:
buoy Buoy
land station Land Station

Pacific - North Coast Area

Another Region

Features

New Predicting and Alerting Coastal Flooding Program

Find out about coastal flooding coverage, forecasts and warnings in your region

Date modified: